createdAt,value
2022-09-04T00:02:24.189Z,99657.00
2022-09-04T00:05:04.113Z,99654.00
2022-09-04T00:07:46.123Z,99654.00
2022-09-04T00:10:23.226Z,99644.00
2022-09-04T00:12:57.987Z,99650.00
2022-09-04T00:15:34.916Z,99649.00
2022-09-04T00:18:11.409Z,99651.00
2022-09-04T00:20:46.900Z,99655.00
2022-09-04T00:23:25.338Z,99664.00
2022-09-04T00:26:03.538Z,99658.00
2022-09-04T00:28:37.341Z,99656.00
2022-09-04T00:31:25.801Z,99647.00
2022-09-04T00:34:13.963Z,99654.00
2022-09-04T00:36:50.388Z,99655.00
2022-09-04T00:39:29.846Z,99647.00
2022-09-04T00:42:17.322Z,99655.00
2022-09-04T00:45:04.679Z,99653.00
2022-09-04T00:48:05.049Z,99664.00
2022-09-04T00:51:11.278Z,99669.00
2022-09-04T00:53:59.765Z,99667.00
2022-09-04T00:57:00.678Z,99664.00
2022-09-04T00:59:57.876Z,99667.00
2022-09-04T01:02:44.820Z,99660.00
2022-09-04T01:05:30.524Z,99671.00
2022-09-04T01:08:15.950Z,99658.00
2022-09-04T01:11:01.770Z,99667.00
2022-09-04T01:13:41.525Z,99672.00
2022-09-04T01:16:19.812Z,99676.00
2022-09-04T01:18:58.363Z,99676.00
2022-09-04T01:22:05.358Z,99670.00
2022-09-04T01:25:05.739Z,99668.00
2022-09-04T01:27:48.926Z,99678.00
2022-09-04T01:30:20.576Z,99667.00
2022-09-04T01:33:08.780Z,99676.00
2022-09-04T01:35:50.569Z,99666.00
2022-09-04T01:38:32.456Z,99669.00
2022-09-04T01:41:11.838Z,99667.00
2022-09-04T01:43:41.295Z,99671.00
2022-09-04T01:46:36.460Z,99670.00
2022-09-04T01:49:16.598Z,99669.00
2022-09-04T01:51:57.870Z,99680.00
2022-09-04T01:54:47.369Z,99680.00
2022-09-04T01:57:40.888Z,99680.00
2022-09-04T02:00:13.694Z,99684.00
2022-09-04T02:02:56.313Z,99681.00
2022-09-04T02:05:37.161Z,99657.00
2022-09-04T02:08:23.966Z,99681.00
2022-09-04T02:11:01.496Z,99687.00
2022-09-04T02:13:43.714Z,99685.00
2022-09-04T02:16:22.129Z,99689.00
2022-09-04T02:19:02.607Z,99697.00
2022-09-04T02:21:41.578Z,99698.00
2022-09-04T02:24:25.375Z,99700.00
2022-09-04T02:27:04.064Z,99696.00
2022-09-04T02:29:41.635Z,99692.00
2022-09-04T02:32:21.380Z,99695.00
2022-09-04T02:34:59.406Z,99696.00
2022-09-04T02:37:38.035Z,99667.00
2022-09-04T02:40:18.584Z,99695.00
2022-09-04T02:43:13.362Z,99699.00
2022-09-04T02:45:51.451Z,99702.00
2022-09-04T02:48:35.166Z,99700.00
2022-09-04T02:51:24.376Z,99700.00
2022-09-04T02:54:07.848Z,99702.00
2022-09-04T02:56:47.516Z,99706.00
2022-09-04T02:59:42.519Z,99710.00
2022-09-04T03:02:22.375Z,99710.00
2022-09-04T03:05:00.930Z,99704.00
2022-09-04T03:07:35.573Z,99711.00
2022-09-04T03:10:13.654Z,99706.00
2022-09-04T03:12:49.793Z,99707.00
2022-09-04T03:15:28.247Z,99703.00
2022-09-04T03:18:05.800Z,99708.00
2022-09-04T03:20:45.653Z,99709.00
2022-09-04T03:23:22.116Z,99699.00
2022-09-04T03:26:11.271Z,99707.00
2022-09-04T03:28:56.210Z,99694.00
2022-09-04T03:31:34.071Z,99675.00
2022-09-04T03:34:21.140Z,99706.00
2022-09-04T03:37:14.204Z,99715.00
2022-09-04T03:39:56.717Z,99708.00
2022-09-04T03:42:36.799Z,99707.00
2022-09-04T03:45:21.167Z,99708.00
2022-09-04T03:48:12.729Z,99714.00
2022-09-04T03:50:52.498Z,99711.00
2022-09-04T03:53:36.180Z,99664.00
2022-09-04T03:56:32.950Z,99676.00
2022-09-04T03:59:08.221Z,99721.00
2022-09-04T04:01:52.951Z,99717.00
2022-09-04T04:04:53.266Z,99716.00
2022-09-04T04:07:38.591Z,99722.00
2022-09-04T04:10:25.822Z,99718.00
2022-09-04T04:13:16.491Z,99723.00
2022-09-04T04:15:59.140Z,99732.00
2022-09-04T04:18:54.037Z,99741.00
2022-09-04T04:21:39.668Z,99739.00
2022-09-04T04:24:38.926Z,99740.00
2022-09-04T04:27:28.469Z,99743.00
2022-09-04T04:30:09.995Z,99747.00
2022-09-04T04:33:12.899Z,99750.00
2022-09-04T04:35:50.928Z,99763.00
2022-09-04T04:38:37.093Z,99752.00
2022-09-04T04:41:54.673Z,99755.00
2022-09-04T04:44:48.201Z,99745.00
2022-09-04T04:47:42.302Z,99754.00
2022-09-04T04:50:23.206Z,99752.00
2022-09-04T04:53:03.498Z,99763.00
2022-09-04T04:55:41.864Z,99762.00
2022-09-04T04:58:56.671Z,99770.00
2022-09-04T05:01:43.341Z,99771.00
2022-09-04T05:04:24.113Z,99769.00
2022-09-04T05:06:59.841Z,99777.00
2022-09-04T05:09:37.896Z,99788.00
2022-09-04T05:12:16.499Z,99783.00
2022-09-04T05:14:55.989Z,99794.00
2022-09-04T05:17:35.586Z,99793.00
2022-09-04T05:20:28.026Z,99799.00
2022-09-04T05:23:13.931Z,99802.00
2022-09-04T05:25:51.838Z,99802.00
2022-09-04T05:28:33.694Z,99812.00
2022-09-04T05:31:21.889Z,99817.00
2022-09-04T05:34:03.980Z,99819.00
2022-09-04T05:36:48.797Z,99828.00
2022-09-04T05:39:29.540Z,99829.00
2022-09-04T05:42:14.942Z,99834.00
2022-09-04T05:45:02.286Z,99833.00
2022-09-04T05:47:46.964Z,99826.00
2022-09-04T05:50:44.082Z,99844.00
2022-09-04T05:53:46.776Z,99850.00
2022-09-04T05:56:40.074Z,99851.00
2022-09-04T05:59:55.547Z,99853.00
2022-09-04T06:03:01.679Z,99856.00
2022-09-04T06:05:45.521Z,99857.00
2022-09-04T06:08:33.474Z,99860.00
2022-09-04T06:11:34.431Z,99859.00
2022-09-04T06:14:26.400Z,99868.00
2022-09-04T06:17:21.077Z,99859.00
2022-09-04T06:20:09.687Z,99878.00
2022-09-04T06:23:07.363Z,99882.00
2022-09-04T06:26:03.755Z,99874.00
2022-09-04T06:29:05.457Z,99878.00
2022-09-04T06:32:04.280Z,99885.00
2022-09-04T06:35:15.219Z,99883.00
2022-09-04T06:38:03.788Z,99894.00
2022-09-04T06:40:53.470Z,99888.00
2022-09-04T06:43:37.872Z,99886.00
2022-09-04T06:46:23.212Z,99882.00
2022-09-04T06:49:05.399Z,99889.00
2022-09-04T06:51:57.484Z,99880.00
2022-09-04T06:54:50.202Z,99884.00
2022-09-04T06:58:07.023Z,99886.00
2022-09-04T07:00:43.790Z,99880.00
2022-09-04T07:03:50.125Z,99888.00
2022-09-04T07:06:25.666Z,99900.00
2022-09-04T07:09:08.586Z,99896.00
2022-09-04T07:12:06.601Z,99909.00
2022-09-04T07:15:17.972Z,99910.00
2022-09-04T07:18:02.080Z,99915.00
2022-09-04T07:20:42.070Z,99917.00
2022-09-04T07:23:32.562Z,99915.00
2022-09-04T07:26:15.480Z,99916.00
2022-09-04T07:29:04.058Z,99913.00
2022-09-04T07:31:40.918Z,99922.00
2022-09-04T07:34:21.672Z,99924.00
2022-09-04T07:36:59.185Z,99915.00
2022-09-04T07:39:39.583Z,99916.00
2022-09-04T07:42:17.135Z,99921.00
2022-09-04T07:45:02.794Z,99924.00
2022-09-04T07:47:43.060Z,99924.00
2022-09-04T07:50:19.165Z,99905.00
2022-09-04T07:53:14.538Z,99917.00
2022-09-04T07:55:46.880Z,99923.00
2022-09-04T07:58:54.783Z,99926.00
2022-09-04T08:01:45.840Z,99926.00
2022-09-04T08:04:47.499Z,99929.00
2022-09-04T08:07:28.237Z,99919.00
2022-09-04T08:10:25.621Z,99925.00
2022-09-04T08:13:18.271Z,99922.00
2022-09-04T08:16:05.538Z,99922.00
2022-09-04T08:18:56.675Z,99921.00
2022-09-04T08:21:30.709Z,99925.00
2022-09-04T08:24:56.998Z,99936.00
2022-09-04T08:27:47.625Z,99938.00
2022-09-04T08:30:20.948Z,99930.00
2022-09-04T08:33:30.946Z,99936.00
2022-09-04T08:36:04.188Z,99933.00
2022-09-04T08:38:51.486Z,99946.00
2022-09-04T08:42:19.339Z,99947.00
2022-09-04T08:45:43.294Z,99941.00
2022-09-04T08:49:10.474Z,99947.00
2022-09-04T08:52:33.612Z,99954.00
2022-09-04T08:55:50.858Z,99961.00
2022-09-04T08:59:07.238Z,99959.00
2022-09-04T09:02:11.001Z,99958.00
2022-09-04T09:05:31.592Z,99969.00
2022-09-04T09:08:43.774Z,99964.00
2022-09-04T09:12:03.480Z,99967.00
2022-09-04T09:15:25.368Z,99961.00
2022-09-04T09:18:02.916Z,99967.00
2022-09-04T09:20:39.857Z,99971.00
2022-09-04T09:23:19.698Z,99960.00
2022-09-04T09:25:55.329Z,99964.00
2022-09-04T09:29:07.012Z,99971.00
2022-09-04T09:32:30.749Z,99966.00
2022-09-04T09:35:56.031Z,99972.00
2022-09-04T09:38:57.938Z,99976.00
2022-09-04T09:42:10.150Z,99975.00
2022-09-04T09:45:14.757Z,99962.00
2022-09-04T09:48:39.299Z,99964.00
2022-09-04T09:52:08.960Z,99971.00
2022-09-04T09:55:21.249Z,99968.00
2022-09-04T09:58:45.535Z,99961.00
2022-09-04T10:01:41.552Z,99963.00
2022-09-04T10:04:54.668Z,99960.00
2022-09-04T10:08:04.251Z,99949.00
2022-09-04T10:11:18.974Z,99941.00
2022-09-04T10:14:43.772Z,99959.00
2022-09-04T10:17:51.971Z,99955.00
2022-09-04T10:20:49.449Z,99958.00
2022-09-04T10:24:01.245Z,99966.00
2022-09-04T10:27:25.408Z,99956.00
2022-09-04T10:30:08.112Z,99959.00
2022-09-04T10:33:18.820Z,99965.00
2022-09-04T10:36:09.845Z,99960.00
2022-09-04T10:39:08.261Z,99962.00
2022-09-04T10:41:58.433Z,99967.00
2022-09-04T10:45:04.186Z,99965.00
2022-09-04T10:48:01.805Z,99954.00
2022-09-04T10:51:01.870Z,99959.00
2022-09-04T10:54:07.781Z,99964.00
2022-09-04T10:56:58.332Z,99965.00
2022-09-04T10:59:58.866Z,99969.00
2022-09-04T11:03:20.360Z,99967.00
2022-09-04T11:06:26.242Z,99964.00
2022-09-04T11:09:28.469Z,99963.00
2022-09-04T11:12:28.924Z,99964.00
2022-09-04T11:15:31.985Z,99959.00
2022-09-04T11:18:40.554Z,99969.00
2022-09-04T11:22:08.672Z,99960.00
2022-09-04T11:25:25.742Z,99968.00
2022-09-04T11:28:44.235Z,99966.00
2022-09-04T11:31:36.175Z,99962.00
2022-09-04T11:35:14.886Z,99971.00
2022-09-04T11:38:09.232Z,99960.00
2022-09-04T11:41:29.771Z,99967.00
2022-09-04T11:45:09.127Z,99968.00
2022-09-04T11:48:11.830Z,99979.00
2022-09-04T11:51:18.169Z,99978.00
2022-09-04T11:54:32.537Z,99973.00
2022-09-04T11:57:16.770Z,99975.00
2022-09-04T12:00:11.363Z,99960.00
2022-09-04T12:03:26.317Z,99968.00
2022-09-04T12:06:25.624Z,99979.00
2022-09-04T12:09:39.668Z,99967.00
2022-09-04T12:12:36.802Z,99978.00
2022-09-04T12:15:59.137Z,99964.00
2022-09-04T12:19:48.318Z,99962.00
2022-09-04T12:23:11.945Z,99964.00
2022-09-04T12:26:13.446Z,99962.00
2022-09-04T12:29:43.788Z,99933.00
2022-09-04T12:32:45.006Z,99972.00
2022-09-04T12:35:48.995Z,99968.00
2022-09-04T12:38:48.305Z,99969.00
2022-09-04T12:41:20.203Z,99961.00
2022-09-04T12:44:05.079Z,99964.00
2022-09-04T12:46:57.791Z,99961.00
2022-09-04T12:50:18.966Z,99959.00
2022-09-04T12:53:26.029Z,99959.00
2022-09-04T12:56:05.764Z,99957.00
2022-09-04T12:58:59.374Z,99959.00
2022-09-04T13:01:42.506Z,99956.00
2022-09-04T13:04:27.553Z,99963.00
2022-09-04T13:07:16.556Z,99974.00
2022-09-04T13:10:01.333Z,99961.00
2022-09-04T13:12:42.301Z,99968.00
2022-09-04T13:15:34.863Z,99962.00
2022-09-04T13:18:22.197Z,99958.00
2022-09-04T13:21:05.392Z,99962.00
2022-09-04T13:24:25.360Z,99963.00
2022-09-04T13:27:16.139Z,99956.00
2022-09-04T13:30:03.895Z,99962.00
2022-09-04T13:32:57.725Z,99956.00
2022-09-04T13:35:58.982Z,99970.00
2022-09-04T13:39:14.028Z,99977.00
2022-09-04T13:42:23.785Z,99960.00
2022-09-04T13:45:08.917Z,99968.00
2022-09-04T13:47:44.968Z,99968.00
2022-09-04T13:50:25.700Z,99964.00
2022-09-04T13:52:59.719Z,99967.00
2022-09-04T13:55:35.464Z,99969.00
2022-09-04T13:58:14.218Z,99969.00
2022-09-04T14:00:47.529Z,99967.00
2022-09-04T14:03:31.832Z,99970.00
2022-09-04T14:06:01.196Z,99961.00
2022-09-04T14:08:31.129Z,99967.00
2022-09-04T14:11:56.723Z,99965.00
2022-09-04T14:14:54.311Z,99960.00
2022-09-04T14:17:34.002Z,99965.00
2022-09-04T14:20:15.550Z,99964.00
2022-09-04T14:23:02.923Z,99964.00
2022-09-04T14:25:40.735Z,99965.00
2022-09-04T14:28:22.264Z,99978.00
2022-09-04T14:31:10.286Z,99969.00
2022-09-04T14:33:53.417Z,99971.00
2022-09-04T14:36:36.774Z,99968.00
2022-09-04T14:39:22.132Z,99964.00
2022-09-04T14:42:18.502Z,99979.00
2022-09-04T14:45:13.201Z,99984.00
2022-09-04T14:47:52.060Z,99984.00
2022-09-04T14:50:23.418Z,99983.00
2022-09-04T14:52:56.848Z,99980.00
2022-09-04T14:55:29.258Z,99989.00
2022-09-04T14:58:05.733Z,99980.00
2022-09-04T15:00:58.377Z,99986.00
2022-09-04T15:03:34.819Z,99985.00
2022-09-04T15:06:16.101Z,99996.00
2022-09-04T15:08:46.317Z,99992.00
2022-09-04T15:11:31.837Z,99998.00
2022-09-04T15:14:07.920Z,99998.00
2022-09-04T15:16:50.687Z,99989.00
2022-09-04T15:19:37.182Z,100000.00
2022-09-04T15:22:13.444Z,99996.00
2022-09-04T15:24:56.046Z,99993.00
2022-09-04T15:27:35.714Z,100002.00
2022-09-04T15:30:08.603Z,100015.00
2022-09-04T15:32:42.630Z,100003.00
2022-09-04T15:35:21.705Z,100013.00
2022-09-04T15:38:03.253Z,100007.00
2022-09-04T15:40:38.986Z,100012.00
2022-09-04T15:43:21.216Z,100013.00
2022-09-04T15:46:01.673Z,100010.00
2022-09-04T15:48:44.961Z,100009.00
2022-09-04T15:51:23.439Z,100005.00
2022-09-04T15:54:22.265Z,100008.00
2022-09-04T15:57:03.230Z,99987.00
2022-09-04T15:59:44.573Z,100003.00
2022-09-04T16:02:26.177Z,100003.00
2022-09-04T16:05:05.596Z,100010.00
2022-09-04T16:07:46.717Z,100010.00
2022-09-04T16:10:24.631Z,100010.00
2022-09-04T16:13:05.168Z,100014.00
2022-09-04T16:15:40.816Z,100016.00
2022-09-04T16:18:19.364Z,100016.00
2022-09-04T16:20:57.658Z,100012.00
2022-09-04T16:23:32.226Z,100018.00
2022-09-04T16:26:10.850Z,100015.00
2022-09-04T16:28:45.537Z,100020.00
2022-09-04T16:31:23.010Z,100025.00
2022-09-04T16:33:58.409Z,100006.00
2022-09-04T16:36:36.030Z,100029.00
2022-09-04T16:39:13.308Z,100029.00
2022-09-04T16:41:49.997Z,100029.00
2022-09-04T16:44:26.511Z,100032.00
2022-09-04T16:47:05.951Z,100034.00
2022-09-04T16:49:47.061Z,100032.00
2022-09-04T16:52:39.462Z,100036.00
2022-09-04T16:55:12.798Z,100041.00
2022-09-04T16:57:53.923Z,100046.00
2022-09-04T17:00:23.999Z,100052.00
2022-09-04T17:03:01.606Z,100051.00
2022-09-04T17:05:36.146Z,100048.00
2022-09-04T17:08:16.903Z,100048.00
2022-09-04T17:10:53.358Z,100051.00
2022-09-04T17:13:28.284Z,100059.00
2022-09-04T17:16:04.911Z,100058.00
2022-09-04T17:18:33.145Z,100050.00
2022-09-04T17:27:34.424Z,100054.00
2022-09-04T17:29:08.804Z,100057.00
2022-09-04T17:29:19.070Z,100056.00
2022-09-04T17:30:29.250Z,100057.00
2022-09-04T17:37:49.290Z,100049.00
2022-09-04T17:40:41.824Z,100059.00
2022-09-04T17:40:43.589Z,100076.00
2022-09-04T17:42:09.849Z,100074.00
2022-09-04T17:44:56.708Z,100077.00
2022-09-04T17:47:34.000Z,100080.00
2022-09-04T17:50:03.318Z,100083.00
2022-09-04T17:52:34.202Z,100083.00
2022-09-04T17:55:08.936Z,100073.00
2022-09-04T17:57:58.004Z,100085.00
2022-09-04T18:00:32.886Z,100080.00
2022-09-04T18:03:07.459Z,100074.00
2022-09-04T18:05:42.033Z,100086.00
2022-09-04T18:08:31.990Z,100093.00
2022-09-04T18:11:07.245Z,100099.00
2022-09-04T18:13:52.834Z,100098.00
2022-09-04T18:17:11.852Z,100097.00
2022-09-04T18:19:46.617Z,100106.00
2022-09-04T18:22:31.932Z,100106.00
2022-09-04T18:25:16.202Z,100113.00
2022-09-04T18:28:11.427Z,100110.00
2022-09-04T18:37:05.519Z,100114.00
2022-09-04T18:37:16.258Z,100121.00
2022-09-04T18:37:25.660Z,100119.00
2022-09-04T18:40:02.902Z,100123.00
2022-09-04T18:49:25.162Z,100131.00
2022-09-04T18:50:38.252Z,100131.00
2022-09-04T18:50:45.736Z,100129.00
2022-09-04T18:51:31.054Z,100139.00
2022-09-04T18:54:10.354Z,100141.00
2022-09-04T18:56:45.388Z,100140.00
2022-09-04T18:59:20.330Z,100121.00
2022-09-04T19:02:00.841Z,100140.00
2022-09-04T19:04:52.525Z,100144.00
2022-09-04T19:07:31.866Z,100147.00
2022-09-04T19:10:12.851Z,100152.00
2022-09-04T19:12:58.576Z,100152.00
2022-09-04T19:15:46.938Z,100149.00
2022-09-04T19:18:27.574Z,100161.00
2022-09-04T19:21:18.419Z,100159.00
2022-09-04T19:23:51.885Z,100163.00
2022-09-04T19:26:35.917Z,100151.00
2022-09-04T19:29:14.852Z,100153.00
2022-09-04T19:31:55.182Z,100155.00
2022-09-04T19:34:33.591Z,100157.00
2022-09-04T19:37:44.772Z,100156.00
2022-09-04T19:45:54.126Z,100159.00
2022-09-04T19:45:59.352Z,100159.00
2022-09-04T19:46:27.950Z,100165.00
2022-09-04T19:51:42.425Z,100166.00
2022-09-04T19:53:30.150Z,100165.00
2022-09-04T19:55:25.023Z,100163.00
2022-09-04T19:58:04.771Z,100173.00
2022-09-04T20:00:43.970Z,100170.00
2022-09-04T20:03:29.760Z,100179.00
2022-09-04T20:06:20.194Z,100172.00
2022-09-04T20:08:58.678Z,100180.00
2022-09-04T20:11:35.662Z,100180.00
2022-09-04T20:14:14.757Z,100187.00
2022-09-04T20:17:01.635Z,100184.00
2022-09-04T20:19:40.397Z,100186.00
2022-09-04T20:22:27.935Z,100187.00
2022-09-04T20:25:19.643Z,100184.00
2022-09-04T20:27:55.110Z,100182.00
2022-09-04T20:30:25.841Z,100186.00
2022-09-04T20:33:01.747Z,100181.00
2022-09-04T20:35:40.118Z,100183.00
2022-09-04T20:38:23.348Z,100180.00
2022-09-04T20:41:02.942Z,100180.00
2022-09-04T20:43:51.446Z,100185.00
2022-09-04T20:52:44.940Z,100177.00
2022-09-04T20:52:53.856Z,100182.00
2022-09-04T20:53:09.557Z,100180.00
2022-09-04T20:55:54.918Z,100184.00
2022-09-04T21:03:11.044Z,100186.00
2022-09-04T21:03:24.232Z,100180.00
2022-09-04T21:04:47.455Z,100199.00
2022-09-04T21:07:28.826Z,100192.00
2022-09-04T21:10:12.056Z,100196.00
2022-09-04T21:12:49.660Z,100197.00
2022-09-04T21:15:41.319Z,100204.00
2022-09-04T21:18:37.912Z,100203.00
2022-09-04T21:21:56.846Z,100202.00
2022-09-04T21:24:57.473Z,100205.00
2022-09-04T21:28:01.287Z,100205.00
2022-09-04T21:30:54.084Z,100207.00
2022-09-04T21:33:36.405Z,100207.00
2022-09-04T21:36:26.025Z,100214.00
2022-09-04T21:39:42.642Z,100219.00
2022-09-04T21:42:42.757Z,100206.00
2022-09-04T21:45:32.651Z,100220.00
2022-09-04T21:48:30.087Z,100223.00
2022-09-04T21:51:45.729Z,100220.00
2022-09-04T21:58:14.183Z,100220.00
2022-09-04T22:02:27.350Z,100224.00
2022-09-04T22:02:44.244Z,100215.00
2022-09-04T22:04:44.725Z,100220.00
2022-09-04T22:11:50.259Z,100219.00
2022-09-04T22:13:42.733Z,100221.00
2022-09-04T22:13:53.130Z,100215.00
2022-09-04T22:16:46.441Z,100218.00
2022-09-04T22:19:47.300Z,100215.00
2022-09-04T22:22:53.467Z,100213.00
2022-09-04T22:25:47.621Z,100181.00
2022-09-04T22:29:05.696Z,100214.00
2022-09-04T22:32:31.940Z,100207.00
2022-09-04T22:35:42.808Z,100207.00
2022-09-04T22:38:32.315Z,100194.00
2022-09-04T22:41:35.819Z,100209.00
2022-09-04T22:44:21.293Z,100208.00
2022-09-04T22:47:26.580Z,100211.00
2022-09-04T22:50:35.649Z,100216.00
2022-09-04T22:53:56.797Z,100216.00
2022-09-04T22:56:51.265Z,100209.00
2022-09-04T23:00:03.470Z,100212.00
2022-09-04T23:03:19.868Z,100213.00
2022-09-04T23:08:13.564Z,100218.00
2022-09-04T23:13:52.294Z,100221.00
2022-09-04T23:13:58.886Z,100214.00
2022-09-04T23:16:45.226Z,100212.00
2022-09-04T23:23:54.856Z,100228.00
2022-09-04T23:26:53.965Z,100221.00
2022-09-04T23:27:00.775Z,100223.00
2022-09-04T23:29:59.472Z,100229.00
2022-09-04T23:32:58.785Z,100222.00
2022-09-04T23:35:42.200Z,100223.00
2022-09-04T23:38:56.880Z,100219.00
2022-09-04T23:41:52.783Z,100216.00
2022-09-04T23:44:57.760Z,100217.00
2022-09-04T23:48:04.819Z,100218.00
2022-09-04T23:50:51.798Z,100217.00
2022-09-04T23:53:34.616Z,100215.00
2022-09-04T23:56:19.161Z,100209.00
2022-09-04T23:59:32.786Z,100209.00
